createdAt,value
2019-04-16T00:02:07.635Z,4.02
2019-04-16T00:06:33.784Z,4.13
2019-04-16T00:11:03.253Z,4.13
2019-04-16T00:15:11.315Z,4.15
2019-04-16T00:19:19.449Z,4.21
2019-04-16T00:23:38.745Z,4.20
2019-04-16T00:27:46.843Z,4.19
2019-04-16T00:31:57.964Z,4.17
2019-04-16T00:36:06.150Z,4.03
2019-04-16T00:40:14.578Z,4.13
2019-04-16T00:44:22.277Z,4.12
2019-04-16T00:48:30.401Z,4.42
2019-04-16T00:52:38.426Z,4.17
2019-04-16T00:56:46.734Z,4.11
2019-04-16T01:00:55.985Z,3.86
2019-04-16T01:05:03.996Z,3.95
2019-04-16T01:09:12.004Z,4.30
2019-04-16T01:13:21.773Z,3.81
2019-04-16T01:17:29.671Z,4.12
2019-04-16T01:21:37.893Z,4.14
2019-04-16T01:25:46.225Z,4.27
2019-04-16T01:29:53.760Z,4.33
2019-04-16T01:34:15.341Z,4.29
2019-04-16T01:38:42.204Z,4.07
2019-04-16T01:42:54.415Z,4.02
2019-04-16T01:47:04.266Z,3.81
2019-04-16T01:51:12.650Z,3.79
2019-04-16T01:55:20.608Z,3.71
2019-04-16T01:59:29.050Z,3.70
2019-04-16T02:03:36.671Z,3.81
2019-04-16T02:07:44.351Z,3.70
2019-04-16T02:11:53.199Z,3.62
2019-04-16T02:16:00.895Z,3.68
2019-04-16T02:20:09.519Z,3.70
2019-04-16T02:24:18.825Z,3.76
2019-04-16T02:28:28.241Z,3.67
2019-04-16T02:32:37.053Z,3.49
2019-04-16T02:36:44.766Z,3.43
2019-04-16T02:40:53.380Z,3.45
2019-04-16T02:45:02.110Z,3.59
2019-04-16T02:49:10.964Z,3.47
2019-04-16T02:53:58.693Z,3.52
2019-04-16T02:58:20.250Z,3.60
2019-04-16T03:02:54.002Z,3.60
2019-04-16T03:07:04.321Z,3.37
2019-04-16T03:11:13.807Z,3.34
2019-04-16T03:15:56.716Z,3.26
2019-04-16T03:20:05.573Z,3.34
2019-04-16T03:24:13.784Z,3.11
2019-04-16T03:28:23.589Z,3.15
2019-04-16T03:32:35.454Z,3.31
2019-04-16T03:36:41.113Z,3.24
2019-04-16T03:40:48.666Z,3.36
2019-04-16T03:44:56.509Z,3.25
2019-04-16T03:49:04.199Z,3.46
2019-04-16T03:53:16.314Z,3.38
2019-04-16T03:57:22.170Z,3.35
2019-04-16T04:01:29.886Z,3.57
2019-04-16T04:05:38.306Z,3.50
2019-04-16T04:09:46.125Z,3.47
2019-04-16T04:13:53.852Z,5.26
2019-04-16T04:18:02.262Z,4.97
2019-04-16T04:22:10.365Z,4.93
2019-04-16T04:26:19.081Z,4.58
2019-04-16T04:30:28.696Z,4.53
2019-04-16T04:34:36.764Z,4.92
2019-04-16T04:38:44.783Z,5.13
2019-04-16T04:42:52.785Z,5.26
2019-04-16T04:47:00.721Z,5.43
2019-04-16T04:51:09.029Z,5.90
2019-04-16T04:55:17.982Z,6.28
2019-04-16T04:59:26.083Z,6.82
2019-04-16T05:04:02.172Z,7.23
2019-04-16T05:08:09.754Z,7.62
2019-04-16T05:12:17.855Z,8.02
2019-04-16T05:16:27.556Z,8.11
2019-04-16T05:20:35.359Z,8.50
2019-04-16T05:24:43.241Z,8.89
2019-04-16T05:28:50.956Z,9.42
2019-04-16T05:32:58.557Z,10.52
2019-04-16T05:37:06.694Z,10.10
2019-04-16T05:41:20.350Z,10.21
2019-04-16T05:45:24.369Z,10.70
2019-04-16T05:49:32.176Z,10.72
2019-04-16T05:53:41.523Z,11.03
2019-04-16T05:57:49.553Z,11.01
2019-04-16T06:02:02.954Z,11.12
2019-04-16T06:06:11.284Z,11.16
2019-04-16T06:10:19.613Z,11.37
2019-04-16T06:14:50.350Z,11.73
2019-04-16T06:19:29.902Z,11.85
2019-04-16T06:23:55.757Z,11.90
2019-04-16T06:28:25.544Z,12.35
2019-04-16T06:32:36.699Z,12.51
2019-04-16T06:37:06.862Z,12.33
2019-04-16T06:41:52.749Z,13.08
2019-04-16T06:46:19.367Z,13.25
2019-04-16T06:50:55.129Z,13.12
2019-04-16T06:55:08.861Z,12.56
2019-04-16T06:59:39.334Z,13.06
2019-04-16T07:03:58.238Z,13.73
2019-04-16T07:08:17.896Z,13.75
2019-04-16T07:12:25.824Z,14.21
2019-04-16T07:16:33.785Z,14.43
2019-04-16T07:20:45.612Z,14.38
2019-04-16T07:25:03.869Z,14.72
2019-04-16T07:29:32.678Z,15.09
2019-04-16T07:33:47.345Z,14.54
2019-04-16T07:38:11.521Z,14.25
2019-04-16T07:42:26.459Z,13.88
2019-04-16T07:47:11.854Z,12.89
2019-04-16T07:51:47.744Z,12.97
2019-04-16T07:55:58.149Z,12.13
2019-04-16T08:00:09.500Z,12.20
2019-04-16T08:04:28.255Z,12.79
2019-04-16T08:08:26.367Z,13.58
2019-04-16T08:12:35.376Z,13.51
2019-04-16T08:16:47.624Z,13.59
2019-04-16T08:21:01.356Z,13.91
2019-04-16T08:25:04.138Z,13.65
2019-04-16T08:29:12.272Z,15.69
2019-04-16T08:33:19.983Z,15.99
2019-04-16T08:37:27.891Z,14.64
2019-04-16T08:41:35.698Z,14.19
2019-04-16T08:45:43.735Z,14.70
2019-04-16T08:49:54.067Z,15.46
2019-04-16T08:54:02.310Z,14.68
2019-04-16T08:58:12.665Z,14.75
2019-04-16T09:02:20.175Z,14.01
2019-04-16T09:06:27.591Z,13.53
2019-04-16T09:10:35.560Z,13.82
2019-04-16T09:14:46.685Z,13.83
2019-04-16T09:19:03.241Z,14.09
2019-04-16T09:23:11.214Z,14.81
2019-04-16T09:27:37.789Z,14.91
2019-04-16T09:32:11.015Z,15.72
2019-04-16T09:36:32.079Z,16.15
2019-04-16T09:40:58.685Z,17.02
2019-04-16T09:45:06.993Z,15.59
2019-04-16T09:49:14.901Z,15.75
2019-04-16T09:53:32.636Z,16.00
2019-04-16T09:57:32.453Z,16.08
2019-04-16T10:01:44.047Z,15.26
2019-04-16T10:05:52.274Z,15.61
2019-04-16T10:10:00.371Z,16.24
2019-04-16T10:14:08.197Z,15.98
2019-04-16T10:18:16.666Z,16.39
2019-04-16T10:22:24.638Z,16.20
2019-04-16T10:26:32.435Z,17.01
2019-04-16T10:30:49.056Z,17.29
2019-04-16T10:34:56.681Z,15.98
2019-04-16T10:39:22.047Z,15.77
2019-04-16T10:43:51.593Z,15.41
2019-04-16T10:48:11.854Z,17.13
2019-04-16T10:52:44.547Z,16.90
2019-04-16T10:57:10.695Z,17.96
2019-04-16T11:01:38.064Z,17.40
2019-04-16T11:05:57.031Z,17.04
2019-04-16T11:10:06.301Z,18.46
2019-04-16T11:14:14.463Z,18.94
2019-04-16T11:18:22.322Z,20.10
2019-04-16T11:22:30.092Z,18.53
2019-04-16T11:26:38.148Z,18.55
2019-04-16T11:30:49.170Z,18.49
2019-04-16T11:34:58.519Z,17.60
2019-04-16T11:39:09.619Z,16.65
2019-04-16T11:43:17.437Z,16.78
2019-04-16T11:47:28.010Z,17.05
2019-04-16T11:51:34.790Z,16.59
2019-04-16T11:55:44.530Z,16.20
2019-04-16T12:00:05.997Z,17.55
2019-04-16T12:04:23.539Z,17.55
2019-04-16T12:08:59.172Z,18.51
2019-04-16T12:13:24.414Z,18.51
2019-04-16T12:17:45.640Z,19.57
2019-04-16T12:22:10.221Z,17.80
2019-04-16T12:26:55.740Z,18.07
2019-04-16T12:31:21.673Z,18.21
2019-04-16T12:35:54.293Z,17.81
2019-04-16T12:40:24.492Z,17.68
2019-04-16T12:44:45.651Z,17.57
2019-04-16T12:49:06.509Z,19.13
2019-04-16T12:53:36.092Z,19.70
2019-04-16T12:58:04.589Z,20.20
2019-04-16T13:02:31.184Z,18.83
2019-04-16T13:06:46.660Z,18.85
2019-04-16T13:11:10.142Z,18.55
2019-04-16T13:15:35.612Z,17.23
2019-04-16T13:20:11.685Z,17.23
2019-04-16T13:24:41.360Z,18.50
2019-04-16T13:28:49.156Z,18.89
2019-04-16T13:32:57.037Z,19.95
2019-04-16T13:37:04.913Z,19.92
2019-04-16T13:41:12.641Z,18.92
2019-04-16T13:45:38.731Z,18.09
2019-04-16T13:50:17.791Z,18.15
2019-04-16T13:54:45.313Z,18.82
2019-04-16T13:59:05.008Z,18.58
2019-04-16T14:03:16.117Z,17.96
2019-04-16T14:07:25.571Z,19.56
2019-04-16T14:11:33.459Z,18.61
2019-04-16T14:15:44.612Z,18.03
2019-04-16T14:19:51.121Z,17.81
2019-04-16T14:23:59.046Z,17.81
2019-04-16T14:28:07.145Z,17.99
2019-04-16T14:32:15.495Z,18.15
2019-04-16T14:36:24.263Z,17.82
2019-04-16T14:40:33.055Z,17.82
2019-04-16T14:44:45.091Z,17.46
2019-04-16T14:48:52.657Z,17.42
2019-04-16T14:53:00.666Z,17.18
2019-04-16T14:57:10.973Z,17.27
2019-04-16T15:01:35.812Z,16.86
2019-04-16T15:05:52.365Z,15.68
2019-04-16T15:10:17.986Z,16.22
2019-04-16T15:14:36.024Z,15.92
2019-04-16T15:19:02.847Z,14.39
2019-04-16T15:23:32.684Z,13.05
2019-04-16T15:28:05.800Z,12.86
2019-04-16T15:32:34.074Z,13.07
2019-04-16T15:36:57.423Z,13.08
2019-04-16T15:41:25.709Z,12.99
2019-04-16T15:45:37.798Z,13.06
2019-04-16T15:50:13.811Z,12.83
2019-04-16T15:54:40.757Z,13.02
2019-04-16T15:58:57.988Z,12.94
2019-04-16T16:03:25.047Z,13.07
2019-04-16T16:07:38.235Z,12.44
2019-04-16T16:11:57.038Z,12.57
2019-04-16T16:16:04.947Z,11.93
2019-04-16T16:20:13.171Z,11.48
2019-04-16T16:24:21.779Z,11.50
2019-04-16T16:28:29.910Z,11.36
2019-04-16T16:32:37.614Z,11.28
2019-04-16T16:36:45.243Z,11.19
2019-04-16T16:40:53.125Z,11.28
2019-04-16T16:45:02.250Z,11.02
2019-04-16T16:49:12.648Z,10.68
2019-04-16T16:53:27.077Z,10.41
2019-04-16T16:57:38.599Z,10.31
2019-04-16T17:02:08.610Z,10.53
2019-04-16T17:06:14.366Z,10.49
2019-04-16T17:10:22.526Z,10.29
2019-04-16T17:14:30.233Z,10.33
2019-04-16T17:18:40.181Z,10.43
2019-04-16T17:22:48.103Z,10.38
2019-04-16T17:26:55.901Z,10.16
2019-04-16T17:31:04.101Z,9.96
2019-04-16T17:35:15.594Z,10.08
2019-04-16T17:39:42.584Z,9.72
2019-04-16T17:44:17.921Z,10.00
2019-04-16T17:48:40.551Z,9.85
2019-04-16T17:53:10.551Z,9.91
2019-04-16T17:57:34.322Z,9.84
2019-04-16T18:02:04.105Z,9.71
2019-04-16T18:06:30.330Z,8.71
2019-04-16T18:10:57.144Z,8.77
2019-04-16T18:15:42.523Z,9.00
2019-04-16T18:20:05.425Z,8.71
2019-04-16T18:24:42.945Z,8.73
2019-04-16T18:29:10.997Z,8.32
2019-04-16T18:33:47.163Z,8.38
2019-04-16T18:38:19.057Z,8.17
2019-04-16T18:42:41.777Z,8.06
2019-04-16T18:47:29.192Z,8.08
2019-04-16T18:51:37.318Z,8.03
2019-04-16T18:55:45.454Z,8.18
2019-04-16T18:59:53.366Z,8.08
2019-04-16T19:04:01.472Z,8.11
2019-04-16T19:08:09.459Z,7.77
2019-04-16T19:12:17.741Z,7.46
2019-04-16T19:16:25.477Z,7.61
2019-04-16T19:20:33.639Z,7.37
2019-04-16T19:24:41.382Z,7.23
2019-04-16T19:28:50.198Z,7.04
2019-04-16T19:33:00.757Z,7.14
2019-04-16T19:37:07.445Z,6.88
2019-04-16T19:41:15.342Z,6.95
2019-04-16T19:45:22.943Z,7.06
2019-04-16T19:49:30.562Z,7.00
2019-04-16T19:53:38.682Z,6.83
2019-04-16T19:57:46.213Z,6.78
2019-04-16T20:01:56.003Z,6.91
2019-04-16T20:06:03.831Z,6.85
2019-04-16T20:10:12.077Z,6.87
2019-04-16T20:14:19.898Z,6.92
2019-04-16T20:18:30.269Z,6.82
2019-04-16T20:22:38.267Z,6.75
2019-04-16T20:26:45.936Z,6.71
2019-04-16T20:31:01.371Z,6.91
2019-04-16T20:35:04.142Z,6.65
2019-04-16T20:39:13.173Z,6.75
2019-04-16T20:43:21.618Z,6.81
2019-04-16T20:47:29.394Z,6.72
2019-04-16T20:51:37.330Z,6.64
2019-04-16T20:55:47.467Z,6.57
2019-04-16T20:59:55.190Z,6.49
2019-04-16T21:04:05.591Z,6.48
2019-04-16T21:08:13.172Z,6.48
2019-04-16T21:12:21.079Z,6.58
2019-04-16T21:16:33.480Z,6.65
2019-04-16T21:20:38.446Z,6.71
2019-04-16T21:24:47.084Z,6.71
2019-04-16T21:29:03.551Z,6.80
2019-04-16T21:33:27.412Z,6.73
2019-04-16T21:38:09.484Z,6.79
2019-04-16T21:42:17.487Z,6.87
2019-04-16T21:46:25.305Z,6.82
2019-04-16T21:50:32.924Z,6.92
2019-04-16T21:54:40.804Z,6.95
2019-04-16T21:58:50.178Z,7.06
2019-04-16T22:02:58.207Z,7.13
2019-04-16T22:07:08.282Z,7.07
2019-04-16T22:11:16.155Z,6.99
2019-04-16T22:15:25.439Z,6.98
2019-04-16T22:19:33.931Z,7.08
2019-04-16T22:23:41.539Z,7.24
2019-04-16T22:27:49.435Z,7.32
2019-04-16T22:31:58.278Z,7.17
2019-04-16T22:36:06.393Z,6.88
2019-04-16T22:40:27.907Z,6.88
2019-04-16T22:44:54.519Z,6.65
2019-04-16T22:49:02.715Z,6.59
2019-04-16T22:53:10.614Z,6.75
2019-04-16T22:57:18.615Z,6.44
2019-04-16T23:01:27.574Z,6.59
2019-04-16T23:05:35.361Z,6.54
2019-04-16T23:09:45.701Z,6.64
2019-04-16T23:13:52.631Z,6.89
2019-04-16T23:18:00.241Z,6.87
2019-04-16T23:22:08.549Z,6.90
2019-04-16T23:26:16.780Z,6.89
2019-04-16T23:30:24.603Z,6.85
2019-04-16T23:34:34.857Z,6.99
2019-04-16T23:38:42.474Z,7.17
2019-04-16T23:43:07.602Z,7.27
2019-04-16T23:47:43.310Z,7.33
2019-04-16T23:52:03.069Z,7.46
2019-04-16T23:56:30.647Z,7.47
